sim
Sign-in with your pilot id or email,
or register
Callsign
Passwort

Schedule Details

Flight Number: OEO1669
Departure: Kuopio Airport (EFKU) at 07:10
Arrival: Munich Airport (EDDM) at 10:20

Weather Information
Getting current METAR information for EFKU 211120Z 24011KT 9999 FEW030 12/05 Q1003
Getting current METAR information for EDDM 211120Z 06004KT 010V130 CAVOK 21/13 Q1017 NOSIG

Schedule Frequency

Route Map